Mount Pisgah, Kentucky
Current Conditions -  °F | °C
As of 3:56 PM on Thursday 27 Nov 2014 (Local Time) from KEKQ Reporting Station
Overcast Overcast  
Wind Chill: 25°   Ceiling: 2300
Heat Index: 32°   Visibility: 10mi
Dew Point: 26°   Wind: 8mph
Humidity: 79%   Direction: 300°WNW
Pressure: 30.4"   Gusts: NA
Location:  36.8129°N, 84.8215°W
Report Text: KEKQ 272056Z AUTO 30007KT 10SM BKN023 OVC029 00/M03 A3040 RMK AO2 51018 60000 T00001033 BKN V SCT SNE43 P0000 SLP304
Loading
Personal Weather Stations






























Interactive Weather Map New forecast layout! Learn more

10-Day Weather Forecast

Advertisements
Track Severe Weather on mobile